createdAt,value
2022-11-10T00:00:16.699Z,72.05
2022-11-10T00:03:06.594Z,77.18
2022-11-10T00:05:53.451Z,93.27
2022-11-10T00:08:40.489Z,81.45
2022-11-10T00:11:27.241Z,85.18
2022-11-10T00:14:31.243Z,83.85
2022-11-10T00:17:18.499Z,77.97
2022-11-10T00:20:07.939Z,75.15
2022-11-10T00:22:56.096Z,82.28
2022-11-10T00:25:43.369Z,77.50
2022-11-10T00:28:31.970Z,71.53
2022-11-10T00:31:18.977Z,73.40
2022-11-10T00:34:05.811Z,70.32
2022-11-10T00:36:54.225Z,71.72
2022-11-10T00:39:41.078Z,80.60
2022-11-10T00:42:27.880Z,78.03
2022-11-10T00:45:14.783Z,75.65
2022-11-10T00:48:01.675Z,76.85
2022-11-10T00:50:48.634Z,78.40
2022-11-10T00:53:37.257Z,75.28
2022-11-10T00:56:24.513Z,75.28
2022-11-10T00:59:11.188Z,79.35
2022-11-10T01:01:57.924Z,69.88
2022-11-10T01:04:44.899Z,77.65
2022-11-10T01:07:33.207Z,73.00
2022-11-10T01:10:21.160Z,78.20
2022-11-10T01:13:08.263Z,74.07
2022-11-10T01:15:55.843Z,68.57
2022-11-10T01:18:43.572Z,74.45
2022-11-10T01:21:31.776Z,71.30
2022-11-10T01:24:21.125Z,66.57
2022-11-10T01:27:09.889Z,69.30
2022-11-10T01:29:57.452Z,76.28
2022-11-10T01:32:44.791Z,77.32
2022-11-10T01:35:32.323Z,73.85
2022-11-10T01:38:19.455Z,78.57
2022-11-10T01:41:08.563Z,78.32
2022-11-10T01:44:15.749Z,75.68
2022-11-10T01:47:03.063Z,70.40
2022-11-10T01:49:51.163Z,70.43
2022-11-10T01:52:38.866Z,68.50
2022-11-10T01:55:26.479Z,73.80
2022-11-10T01:58:16.082Z,66.85
2022-11-10T02:01:04.786Z,72.82
2022-11-10T02:03:54.122Z,71.78
2022-11-10T02:06:44.341Z,91.40
2022-11-10T02:09:31.973Z,77.57
2022-11-10T02:12:37.075Z,63.88
2022-11-10T02:15:24.656Z,71.63
2022-11-10T02:18:14.150Z,61.38
2022-11-10T02:21:05.273Z,64.60
2022-11-10T02:23:53.360Z,76.00
2022-11-10T02:26:43.788Z,69.03
2022-11-10T02:29:30.851Z,71.32
2022-11-10T02:32:17.832Z,68.60
2022-11-10T02:35:05.035Z,66.88
2022-11-10T02:37:53.661Z,64.50
2022-11-10T02:40:41.168Z,70.70
2022-11-10T02:43:28.503Z,70.78
2022-11-10T02:46:15.929Z,61.28
2022-11-10T02:49:03.849Z,69.65
2022-11-10T02:51:51.017Z,69.45
2022-11-10T02:54:39.575Z,70.68
2022-11-10T02:57:26.986Z,68.72
2022-11-10T03:00:14.686Z,64.53
2022-11-10T03:03:02.714Z,65.22
2022-11-10T03:05:50.337Z,67.93
2022-11-10T03:08:38.989Z,64.20
2022-11-10T03:11:31.962Z,68.25
2022-11-10T03:14:19.295Z,65.03
2022-11-10T03:17:06.645Z,64.35
2022-11-10T03:19:53.850Z,66.85
2022-11-10T03:22:41.553Z,63.42
2022-11-10T03:25:28.664Z,60.33
2022-11-10T03:28:17.249Z,62.42
2022-11-10T03:31:04.637Z,65.72
2022-11-10T03:33:51.633Z,58.95
2022-11-10T03:36:38.829Z,62.80
2022-11-10T03:39:26.128Z,64.10
2022-11-10T03:42:13.548Z,62.63
2022-11-10T03:45:02.112Z,69.65
2022-11-10T03:47:50.495Z,68.47
2022-11-10T03:50:37.621Z,57.47
2022-11-10T03:53:25.227Z,66.68
2022-11-10T03:56:12.904Z,61.15
2022-11-10T03:59:00.709Z,62.70
2022-11-10T04:01:50.304Z,61.75
2022-11-10T04:04:55.090Z,62.13
2022-11-10T04:07:59.711Z,62.88
2022-11-10T04:10:47.508Z,61.35
2022-11-10T04:13:52.380Z,73.53
2022-11-10T04:16:40.174Z,67.22
2022-11-10T04:19:29.582Z,71.07
2022-11-10T04:22:36.593Z,70.40
2022-11-10T04:25:23.613Z,66.13
2022-11-10T04:28:10.774Z,67.28
2022-11-10T04:30:57.822Z,65.22
2022-11-10T04:33:45.642Z,68.88
2022-11-10T04:36:35.669Z,67.68
2022-11-10T04:39:22.861Z,64.72
2022-11-10T04:42:09.915Z,71.30
2022-11-10T04:44:57.255Z,66.15
2022-11-10T04:47:44.639Z,65.25
2022-11-10T04:50:31.666Z,69.10
2022-11-10T04:53:21.001Z,68.10
2022-11-10T04:56:08.370Z,67.95
2022-11-10T04:58:55.931Z,71.95
2022-11-10T05:01:43.760Z,66.55
2022-11-10T05:04:31.119Z,72.95
2022-11-10T05:07:18.216Z,68.20
2022-11-10T05:10:07.586Z,69.88
2022-11-10T05:12:55.772Z,77.53
2022-11-10T05:15:43.069Z,73.53
2022-11-10T05:18:30.268Z,73.47
2022-11-10T05:21:17.626Z,76.20
2022-11-10T05:24:04.960Z,77.60
2022-11-10T05:26:53.742Z,73.13
2022-11-10T05:29:40.969Z,70.47
2022-11-10T05:32:28.007Z,73.53
2022-11-10T05:35:15.035Z,74.85
2022-11-10T05:38:02.770Z,72.65
2022-11-10T05:40:49.819Z,82.40
2022-11-10T05:43:38.370Z,84.20
2022-11-10T05:46:26.028Z,89.47
2022-11-10T05:49:13.489Z,82.90
2022-11-10T05:52:01.276Z,80.32
2022-11-10T05:54:48.642Z,89.97
2022-11-10T05:57:35.720Z,93.25
2022-11-10T06:00:25.928Z,86.03
2022-11-10T06:03:15.540Z,92.90
2022-11-10T06:06:02.995Z,90.43
2022-11-10T06:08:50.619Z,98.05
2022-11-10T06:11:38.068Z,102.10
2022-11-10T06:14:25.259Z,95.70
2022-11-10T06:17:13.854Z,87.10
2022-11-10T06:20:01.148Z,91.82
2022-11-10T06:23:01.060Z,86.60
2022-11-10T06:25:48.258Z,91.20
2022-11-10T06:28:35.920Z,89.43
2022-11-10T06:31:23.436Z,97.90
2022-11-10T06:34:12.606Z,91.05
2022-11-10T06:37:00.103Z,93.55
2022-11-10T06:39:47.804Z,83.75
2022-11-10T06:42:35.228Z,86.95
2022-11-10T06:45:22.671Z,96.45
2022-11-10T06:48:13.894Z,91.65
2022-11-10T06:51:03.292Z,89.10
2022-11-10T06:53:50.410Z,85.65
2022-11-10T06:56:38.081Z,94.93
2022-11-10T06:59:25.281Z,87.72
2022-11-10T07:02:15.450Z,93.20
2022-11-10T07:05:03.068Z,88.53
2022-11-10T07:07:51.604Z,95.45
2022-11-10T07:10:39.010Z,83.38
2022-11-10T07:13:26.327Z,83.68
2022-11-10T07:16:14.016Z,85.60
2022-11-10T07:19:01.510Z,85.63
2022-11-10T07:21:49.180Z,93.22
2022-11-10T07:24:38.238Z,81.72
2022-11-10T07:27:25.509Z,81.05
2022-11-10T07:30:14.024Z,81.10
2022-11-10T07:33:02.541Z,100.40
2022-11-10T07:35:54.929Z,88.80
2022-11-10T07:38:42.281Z,81.07
2022-11-10T07:41:30.624Z,88.53
2022-11-10T07:44:17.947Z,82.90
2022-11-10T07:47:04.993Z,84.05
2022-11-10T07:49:52.416Z,79.32
2022-11-10T07:52:39.875Z,75.90
2022-11-10T07:55:27.199Z,88.82
2022-11-10T07:58:17.083Z,80.88
2022-11-10T08:01:04.203Z,75.40
2022-11-10T08:03:51.755Z,77.22
2022-11-10T08:06:39.035Z,74.13
2022-11-10T08:09:26.448Z,79.55
2022-11-10T08:12:13.514Z,83.15
2022-11-10T08:15:02.104Z,70.65
2022-11-10T08:17:49.450Z,84.30
2022-11-10T08:20:36.945Z,73.18
2022-11-10T08:23:24.780Z,73.47
2022-11-10T08:26:12.170Z,74.75
2022-11-10T08:28:59.795Z,79.63
2022-11-10T08:31:48.345Z,68.10
2022-11-10T08:34:35.523Z,75.18
2022-11-10T08:37:23.034Z,73.38
2022-11-10T08:40:11.425Z,70.90
2022-11-10T08:43:03.268Z,76.05
2022-11-10T08:45:51.042Z,71.78
2022-11-10T08:48:39.973Z,65.38
2022-11-10T08:51:27.140Z,80.05
2022-11-10T08:54:14.898Z,67.88
2022-11-10T08:57:02.173Z,62.00
2022-11-10T08:59:49.649Z,60.30
2022-11-10T09:02:37.077Z,66.25
2022-11-10T09:05:26.370Z,62.20
2022-11-10T09:08:13.610Z,60.78
2022-11-10T09:11:03.615Z,57.38
2022-11-10T09:13:51.210Z,57.45
2022-11-10T09:16:38.946Z,62.03
2022-11-10T09:19:26.616Z,60.95
2022-11-10T09:22:15.187Z,56.22
2022-11-10T09:25:02.770Z,58.58
2022-11-10T09:27:50.435Z,60.65
2022-11-10T09:30:37.747Z,53.05
2022-11-10T09:33:25.679Z,51.22
2022-11-10T09:36:13.572Z,58.22
2022-11-10T09:39:02.434Z,53.28
2022-11-10T09:41:49.982Z,52.78
2022-11-10T09:44:40.888Z,56.75
2022-11-10T09:47:56.365Z,49.97
2022-11-10T09:50:45.996Z,58.08
2022-11-10T09:53:38.163Z,50.60
2022-11-10T09:56:33.333Z,57.30
2022-11-10T09:59:23.568Z,45.95
2022-11-10T10:02:20.355Z,55.45
2022-11-10T10:05:33.974Z,55.15
2022-11-10T10:08:27.416Z,50.55
2022-11-10T10:11:34.667Z,46.42
2022-11-10T10:14:32.580Z,46.97
2022-11-10T10:17:26.874Z,52.72
2022-11-10T10:20:20.261Z,48.90
2022-11-10T10:23:17.039Z,41.13
2022-11-10T10:26:04.444Z,42.08
2022-11-10T10:28:53.311Z,44.05
2022-11-10T10:31:42.591Z,39.35
2022-11-10T10:34:31.787Z,41.15
2022-11-10T10:37:25.028Z,44.60
2022-11-10T10:40:16.121Z,41.08
2022-11-10T10:43:03.811Z,42.15
2022-11-10T10:46:07.909Z,41.97
2022-11-10T10:52:24.887Z,36.97
2022-11-10T10:55:14.150Z,34.97
2022-11-10T10:58:03.072Z,27.95
2022-11-10T11:00:52.610Z,34.75
2022-11-10T11:03:44.171Z,34.22
2022-11-10T11:06:32.149Z,31.40
2022-11-10T11:09:21.226Z,29.05
2022-11-10T11:12:12.041Z,35.47
2022-11-10T11:15:26.615Z,31.08
2022-11-10T11:18:16.478Z,30.63
2022-11-10T11:21:10.988Z,30.77
2022-11-10T11:24:13.013Z,32.38
2022-11-10T11:27:03.175Z,30.92
2022-11-10T11:30:05.712Z,27.23
2022-11-10T11:33:12.269Z,32.90
2022-11-10T11:36:04.288Z,36.85
2022-11-10T11:39:00.110Z,33.33
2022-11-10T11:41:51.725Z,23.60
2022-11-10T11:45:00.614Z,23.90
2022-11-10T11:48:09.581Z,22.88
2022-11-10T11:50:59.329Z,23.40
2022-11-10T11:54:04.091Z,22.13
2022-11-10T11:56:52.294Z,24.92
2022-11-10T11:59:50.806Z,23.05
2022-11-10T12:03:08.283Z,23.65
2022-11-10T12:06:05.447Z,24.92
2022-11-10T12:08:58.669Z,21.48
2022-11-10T12:11:57.481Z,19.38
2022-11-10T12:14:52.761Z,21.27
2022-11-10T12:17:45.667Z,20.60
2022-11-10T12:20:40.996Z,23.58
2022-11-10T12:23:34.335Z,23.92
2022-11-10T12:26:31.911Z,21.85
2022-11-10T12:29:25.669Z,24.45
2022-11-10T12:32:17.656Z,17.80
2022-11-10T12:35:09.325Z,26.15
2022-11-10T12:38:00.308Z,23.40
2022-11-10T12:40:50.185Z,22.98
2022-11-10T12:43:41.812Z,21.70
2022-11-10T12:46:30.758Z,33.47
2022-11-10T12:49:19.858Z,19.70
2022-11-10T12:52:11.808Z,26.73
2022-11-10T12:54:59.178Z,26.30
2022-11-10T12:57:46.933Z,23.35
2022-11-10T13:00:38.849Z,27.45
2022-11-10T13:03:30.933Z,19.95
2022-11-10T13:06:27.672Z,24.63
2022-11-10T13:09:26.278Z,23.70
2022-11-10T13:12:21.516Z,20.05
2022-11-10T13:15:44.604Z,28.75
2022-11-10T13:18:57.239Z,21.58
2022-11-10T13:22:12.392Z,22.15
2022-11-10T13:25:36.261Z,23.20
2022-11-10T13:29:01.677Z,23.75
2022-11-10T13:31:54.899Z,24.25
2022-11-10T13:34:44.799Z,22.52
2022-11-10T13:37:50.950Z,22.67
2022-11-10T13:40:41.085Z,23.27
2022-11-10T13:43:29.018Z,22.30
2022-11-10T13:46:16.672Z,19.42
2022-11-10T13:49:26.801Z,22.33
2022-11-10T13:52:18.717Z,22.95
2022-11-10T13:55:16.823Z,23.88
2022-11-10T13:58:05.865Z,23.55
2022-11-10T14:01:23.004Z,19.95
2022-11-10T14:04:10.181Z,19.88
2022-11-10T14:06:58.599Z,23.02
2022-11-10T14:09:49.556Z,23.55
2022-11-10T14:12:42.487Z,21.05
2022-11-10T14:15:38.830Z,23.42
2022-11-10T14:18:29.307Z,24.95
2022-11-10T14:21:23.054Z,26.70
2022-11-10T14:24:17.025Z,25.55
2022-11-10T14:27:09.890Z,22.38
2022-11-10T14:30:21.911Z,26.42
2022-11-10T14:33:12.932Z,25.73
2022-11-10T14:36:02.126Z,24.65
2022-11-10T14:38:49.687Z,22.92
2022-11-10T14:41:37.537Z,23.50
2022-11-10T14:44:27.619Z,22.95
2022-11-10T14:47:16.935Z,26.13
2022-11-10T14:50:09.373Z,29.87
2022-11-10T14:52:59.651Z,27.48
2022-11-10T14:55:51.873Z,24.65
2022-11-10T14:58:43.595Z,31.02
2022-11-10T15:01:36.017Z,29.67
2022-11-10T15:04:28.803Z,32.25
2022-11-10T15:07:16.382Z,28.45
2022-11-10T15:10:06.880Z,29.20
2022-11-10T15:13:05.658Z,31.75
2022-11-10T15:15:53.712Z,30.70
2022-11-10T15:18:42.448Z,32.40
2022-11-10T15:21:34.129Z,36.25
2022-11-10T15:24:28.458Z,27.58
2022-11-10T15:27:24.082Z,29.40
2022-11-10T15:30:23.079Z,31.52
2022-11-10T15:33:11.642Z,31.13
2022-11-10T15:36:16.222Z,25.05
2022-11-10T15:39:08.478Z,38.83
2022-11-10T15:41:59.499Z,33.08
2022-11-10T15:44:47.798Z,27.17
2022-11-10T15:47:35.370Z,28.35
2022-11-10T15:50:22.756Z,26.30
2022-11-10T15:53:15.204Z,26.98
2022-11-10T15:56:02.832Z,24.02
2022-11-10T15:58:51.879Z,26.90
2022-11-10T16:01:39.277Z,25.35
2022-11-10T16:04:28.308Z,29.13
2022-11-10T16:07:15.563Z,26.60
2022-11-10T16:10:04.566Z,24.30
2022-11-10T16:12:52.243Z,24.23
2022-11-10T16:15:40.083Z,23.65
2022-11-10T16:18:28.775Z,23.23
2022-11-10T16:21:16.889Z,24.58
2022-11-10T16:24:04.534Z,21.15
2022-11-10T16:26:53.321Z,21.58
2022-11-10T16:29:40.880Z,27.00
2022-11-10T16:32:28.281Z,26.58
2022-11-10T16:35:15.759Z,30.15
2022-11-10T16:38:18.428Z,21.85
2022-11-10T16:41:11.329Z,27.40
2022-11-10T16:43:59.930Z,28.75
2022-11-10T16:46:51.702Z,24.13
2022-11-10T16:49:45.546Z,24.20
2022-11-10T16:52:32.682Z,25.95
2022-11-10T16:55:20.078Z,22.92
2022-11-10T16:58:07.505Z,21.50
2022-11-10T17:00:58.882Z,26.63
2022-11-10T17:03:47.731Z,23.63
2022-11-10T17:06:35.732Z,28.35
2022-11-10T17:09:26.160Z,32.17
2022-11-10T17:12:14.719Z,32.35
2022-11-10T17:15:02.197Z,27.05
2022-11-10T17:17:53.574Z,31.50
2022-11-10T17:20:43.026Z,32.00
2022-11-10T17:23:30.663Z,29.52
2022-11-10T17:26:19.262Z,31.63
2022-11-10T17:29:06.505Z,34.10
2022-11-10T17:31:54.455Z,31.73
2022-11-10T17:34:43.047Z,30.92
2022-11-10T17:37:30.259Z,29.90
2022-11-10T17:40:20.592Z,32.47
2022-11-10T17:43:09.571Z,38.53
2022-11-10T17:45:56.903Z,27.30
2022-11-10T17:48:44.685Z,38.85
2022-11-10T17:51:33.814Z,32.58
2022-11-10T17:54:21.092Z,34.08
2022-11-10T17:57:10.066Z,27.17
2022-11-10T17:59:57.420Z,27.67
2022-11-10T18:02:47.243Z,26.50
2022-11-10T18:05:37.351Z,36.90
2022-11-10T18:08:26.255Z,34.17
2022-11-10T18:11:15.072Z,37.85
2022-11-10T18:14:03.188Z,32.55
2022-11-10T18:16:50.404Z,34.92
2022-11-10T18:19:37.907Z,31.73
2022-11-10T18:22:25.130Z,30.02
2022-11-10T18:25:13.945Z,26.67
2022-11-10T18:28:01.179Z,30.80
2022-11-10T18:30:48.632Z,28.35
2022-11-10T18:33:36.918Z,34.90
2022-11-10T18:36:24.262Z,31.27
2022-11-10T18:39:11.882Z,37.10
2022-11-10T18:42:00.676Z,33.35
2022-11-10T18:44:48.049Z,32.67
2022-11-10T18:47:35.400Z,31.67
2022-11-10T18:50:22.941Z,33.17
2022-11-10T18:53:10.307Z,38.45
2022-11-10T18:55:57.923Z,35.05
2022-11-10T18:58:53.745Z,39.42
2022-11-10T19:01:44.497Z,38.10
2022-11-10T19:04:32.031Z,41.83
2022-11-10T19:07:19.500Z,38.17
2022-11-10T19:10:07.878Z,42.70
2022-11-10T19:12:55.303Z,30.23
2022-11-10T19:15:43.950Z,32.90
2022-11-10T19:18:31.153Z,38.83
2022-11-10T19:21:20.124Z,36.65
2022-11-10T19:24:08.010Z,34.53
2022-11-10T19:26:55.148Z,35.33
2022-11-10T19:29:42.277Z,37.00
2022-11-10T19:32:32.308Z,32.30
2022-11-10T19:35:19.759Z,34.47
2022-11-10T19:38:06.441Z,36.80
2022-11-10T19:40:53.599Z,37.60
2022-11-10T19:43:44.910Z,38.38
2022-11-10T19:46:37.064Z,37.58
2022-11-10T19:49:25.920Z,37.30
2022-11-10T19:52:13.202Z,34.53
2022-11-10T19:55:00.208Z,41.35
2022-11-10T19:57:47.491Z,39.47
2022-11-10T20:00:34.908Z,40.25
2022-11-10T20:03:22.694Z,40.50
2022-11-10T20:06:13.202Z,36.22
2022-11-10T20:09:00.346Z,41.35
2022-11-10T20:11:47.989Z,45.63
2022-11-10T20:14:35.705Z,40.85
2022-11-10T20:17:23.128Z,36.78
2022-11-10T20:20:10.935Z,42.47
2022-11-10T20:23:03.298Z,40.58
2022-11-10T20:25:50.749Z,48.05
2022-11-10T20:28:39.568Z,46.15
2022-11-10T20:31:27.367Z,45.65
2022-11-10T20:34:15.359Z,50.88
2022-11-10T20:37:02.836Z,41.90
2022-11-10T20:39:51.593Z,35.42
2022-11-10T20:42:42.491Z,43.08
2022-11-10T20:45:30.288Z,48.47
2022-11-10T20:48:17.715Z,46.42
2022-11-10T20:51:10.205Z,41.35
2022-11-10T20:53:59.516Z,45.08
2022-11-10T20:56:48.019Z,53.95
2022-11-10T20:59:35.188Z,39.03
2022-11-10T21:02:22.870Z,42.35
2022-11-10T21:05:10.736Z,50.35
2022-11-10T21:07:58.138Z,46.70
2022-11-10T21:10:51.649Z,48.83
2022-11-10T21:13:40.475Z,54.10
2022-11-10T21:16:28.460Z,45.28
2022-11-10T21:19:16.172Z,50.20
2022-11-10T21:22:03.450Z,53.67
2022-11-10T21:24:50.870Z,50.63
2022-11-10T21:27:38.381Z,43.72
2022-11-10T21:30:27.583Z,44.47
2022-11-10T21:33:15.020Z,44.17
2022-11-10T21:36:06.820Z,44.72
2022-11-10T21:38:54.402Z,39.70
2022-11-10T21:41:41.942Z,41.13
2022-11-10T21:44:29.383Z,46.50
2022-11-10T21:47:17.923Z,45.30
2022-11-10T21:50:05.567Z,40.38
2022-11-10T21:52:52.830Z,36.60
2022-11-10T21:55:40.126Z,40.60
2022-11-10T21:58:28.346Z,41.38
2022-11-10T22:01:19.093Z,42.28
2022-11-10T22:04:07.438Z,39.17
2022-11-10T22:07:11.756Z,50.40
2022-11-10T22:10:16.621Z,39.58
2022-11-10T22:13:21.148Z,40.60
2022-11-10T22:16:38.354Z,40.03
2022-11-10T22:19:26.597Z,34.30
2022-11-10T22:22:15.371Z,36.55
2022-11-10T22:25:02.796Z,42.80
2022-11-10T22:27:49.765Z,34.42
2022-11-10T22:30:37.629Z,36.90
2022-11-10T22:33:34.784Z,42.13
2022-11-10T22:36:23.596Z,39.35
2022-11-10T22:39:10.893Z,47.85
2022-11-10T22:42:15.438Z,39.67
2022-11-10T22:45:02.459Z,41.70
2022-11-10T22:48:07.229Z,49.97
2022-11-10T22:50:57.311Z,46.08
2022-11-10T22:53:45.819Z,50.67
2022-11-10T22:56:34.360Z,47.13
2022-11-10T22:59:21.516Z,45.38
2022-11-10T23:02:08.229Z,60.28
2022-11-10T23:04:55.381Z,48.70
2022-11-10T23:07:42.495Z,51.63
2022-11-10T23:10:30.741Z,52.95
2022-11-10T23:13:17.950Z,40.45
2022-11-10T23:16:06.474Z,44.38
2022-11-10T23:18:54.864Z,40.45
2022-11-10T23:21:42.077Z,40.53
2022-11-10T23:24:28.923Z,46.38
2022-11-10T23:27:17.262Z,46.13
2022-11-10T23:30:04.603Z,46.72
2022-11-10T23:32:51.505Z,50.03
2022-11-10T23:35:38.857Z,50.10
2022-11-10T23:38:26.151Z,42.10
2022-11-10T23:41:15.055Z,41.47
2022-11-10T23:44:03.404Z,46.80
2022-11-10T23:46:50.480Z,44.42
2022-11-10T23:49:37.214Z,44.78
2022-11-10T23:52:23.988Z,45.67
2022-11-10T23:55:11.084Z,44.05
2022-11-10T23:57:57.791Z,44.03
